createdAt,value
2018-04-15T00:01:25.900Z,101854.54
2018-04-15T00:03:54.453Z,101857.51
2018-04-15T00:06:23.131Z,101855.47
2018-04-15T00:08:51.874Z,101859.72
2018-04-15T00:11:20.256Z,101855.54
2018-04-15T00:13:50.489Z,101862.11
2018-04-15T00:16:19.041Z,101855.41
2018-04-15T00:18:47.444Z,101864.24
2018-04-15T00:21:15.924Z,101854.90
2018-04-15T00:23:44.301Z,101855.73
2018-04-15T00:26:12.693Z,101854.38
2018-04-15T00:28:41.068Z,101858.09
2018-04-15T00:31:10.155Z,101863.05
2018-04-15T00:33:38.717Z,101860.78
2018-04-15T00:36:07.161Z,101861.50
2018-04-15T00:38:35.540Z,101867.83
2018-04-15T00:41:03.895Z,101868.81
2018-04-15T00:43:32.463Z,101870.52
2018-04-15T00:46:01.060Z,101870.36
2018-04-15T00:48:29.477Z,101876.86
2018-04-15T00:50:57.882Z,101877.20
2018-04-15T00:53:26.525Z,101871.55
2018-04-15T00:55:55.120Z,101870.59
2018-04-15T00:58:23.475Z,101871.41
2018-04-15T01:00:51.923Z,101869.42
2018-04-15T01:03:20.441Z,101872.03
2018-04-15T01:05:50.653Z,101866.66
2018-04-15T01:08:19.056Z,101867.69
2018-04-15T01:10:47.990Z,101868.73
2018-04-15T01:13:16.700Z,101874.83
2018-04-15T01:15:45.249Z,101877.09
2018-04-15T01:18:13.874Z,101871.63
2018-04-15T01:20:42.663Z,101872.52
2018-04-15T01:23:11.080Z,101874.29
2018-04-15T01:25:39.599Z,101876.02
2018-04-15T01:28:08.042Z,101882.00
2018-04-15T01:30:36.645Z,101884.23
2018-04-15T01:33:05.216Z,101879.23
2018-04-15T01:35:35.199Z,101875.86
2018-04-15T01:38:03.895Z,101876.93
2018-04-15T01:40:32.623Z,101879.61
2018-04-15T01:43:01.049Z,101877.20
2018-04-15T01:45:29.475Z,101870.23
2018-04-15T01:47:57.987Z,101882.27
2018-04-15T01:50:26.616Z,101868.38
2018-04-15T01:52:55.421Z,101872.23
2018-04-15T01:55:24.194Z,101865.94
2018-04-15T01:57:53.008Z,101864.68
2018-04-15T02:00:21.366Z,101867.30
2018-04-15T02:02:49.863Z,101867.34
2018-04-15T02:05:18.858Z,101869.62
2018-04-15T02:07:47.259Z,101863.80
2018-04-15T02:10:16.013Z,101865.31
2018-04-15T02:12:44.382Z,101874.48
2018-04-15T02:15:13.594Z,101864.22
2018-04-15T02:17:42.058Z,101870.78
2018-04-15T02:20:10.448Z,101871.02
2018-04-15T02:22:39.076Z,101866.22
2018-04-15T02:25:07.939Z,101855.78
2018-04-15T02:27:36.648Z,101856.20
2018-04-15T02:30:05.313Z,101849.52
2018-04-15T02:32:33.684Z,101855.15
2018-04-15T02:35:02.919Z,101855.78
2018-04-15T02:37:31.379Z,101848.80
2018-04-15T02:40:00.222Z,101853.99
2018-04-15T02:42:28.690Z,101856.25
2018-04-15T02:44:57.204Z,101854.67
2018-04-15T02:47:26.566Z,101847.98
2018-04-15T02:49:55.341Z,101842.89
2018-04-15T02:52:23.772Z,101841.17
2018-04-15T02:54:52.131Z,101842.86
2018-04-15T02:57:20.917Z,101842.84
2018-04-15T02:59:49.642Z,101845.33
2018-04-15T03:02:18.039Z,101846.59
2018-04-15T03:04:46.864Z,101837.45
2018-04-15T03:07:15.549Z,101839.73
2018-04-15T03:09:44.689Z,101839.48
2018-04-15T03:12:13.202Z,101846.72
2018-04-15T03:14:42.348Z,101853.91
2018-04-15T03:17:10.752Z,101844.28
2018-04-15T03:19:39.115Z,101849.38
2018-04-15T03:22:07.720Z,101851.48
2018-04-15T03:24:36.261Z,101845.11
2018-04-15T03:27:04.636Z,101843.78
2018-04-15T03:29:32.999Z,101837.42
2018-04-15T03:32:01.693Z,101838.23
2018-04-15T03:34:30.848Z,101839.44
2018-04-15T03:36:59.325Z,101832.18
2018-04-15T03:39:28.587Z,101834.31
2018-04-15T03:41:57.121Z,101828.80
2018-04-15T03:44:25.936Z,101833.87
2018-04-15T03:46:54.312Z,101836.42
2018-04-15T03:49:22.974Z,101838.58
2018-04-15T03:51:51.599Z,101837.91
2018-04-15T03:54:20.060Z,101831.68
2018-04-15T03:56:48.574Z,101833.05
2018-04-15T03:59:17.380Z,101836.53
2018-04-15T04:01:45.955Z,101837.59
2018-04-15T04:04:14.425Z,101836.45
2018-04-15T04:06:42.841Z,101834.02
2018-04-15T04:09:11.260Z,101837.06
2018-04-15T04:11:39.619Z,101826.09
2018-04-15T04:14:07.975Z,101833.38
2018-04-15T04:16:36.779Z,101826.94
2018-04-15T04:19:17.083Z,101824.28
2018-04-15T04:21:58.613Z,101829.26
2018-04-15T04:24:38.731Z,101830.53
2018-04-15T04:27:07.251Z,101839.02
2018-04-15T04:29:35.634Z,101845.44
2018-04-15T04:32:04.320Z,101855.53
2018-04-15T04:34:33.069Z,101849.46
2018-04-15T04:37:01.544Z,101848.41
2018-04-15T04:39:30.489Z,101845.16
2018-04-15T04:41:58.876Z,101836.50
2018-04-15T04:44:27.239Z,101838.95
2018-04-15T04:46:55.941Z,101839.09
2018-04-15T04:49:24.314Z,101839.73
2018-04-15T04:51:53.057Z,101847.13
2018-04-15T04:54:22.980Z,101848.00
2018-04-15T04:56:51.335Z,101851.88
2018-04-15T04:59:19.700Z,101847.09
2018-04-15T05:01:48.051Z,101848.58
2018-04-15T05:04:16.503Z,101843.34
2018-04-15T05:06:44.890Z,101833.42
2018-04-15T05:09:13.672Z,101837.83
2018-04-15T05:11:43.004Z,101836.35
2018-04-15T05:14:11.805Z,101836.20
2018-04-15T05:16:40.561Z,101841.07
2018-04-15T05:19:08.941Z,101846.36
2018-04-15T05:21:37.420Z,101835.72
2018-04-15T05:24:05.831Z,101841.66
2018-04-15T05:26:34.790Z,101829.09
2018-04-15T05:29:03.588Z,101825.08
2018-04-15T05:31:33.231Z,101826.14
2018-04-15T05:34:01.708Z,101830.50
2018-04-15T05:36:30.530Z,101828.48
2018-04-15T05:38:58.983Z,101823.39
2018-04-15T05:41:27.523Z,101822.14
2018-04-15T05:43:56.406Z,101820.50
2018-04-15T05:46:25.068Z,101816.03
2018-04-15T05:48:54.032Z,101815.92
2018-04-15T05:51:23.007Z,101814.38
2018-04-15T05:53:51.729Z,101814.93
2018-04-15T05:56:20.422Z,101809.52
2018-04-15T05:58:49.039Z,101810.83
2018-04-15T06:01:17.702Z,101818.49
2018-04-15T06:03:46.465Z,101816.35
2018-04-15T06:06:15.365Z,101820.59
2018-04-15T06:08:43.853Z,101826.26
2018-04-15T06:11:12.423Z,101833.23
2018-04-15T06:13:41.079Z,101828.30
2018-04-15T06:16:09.806Z,101829.64
2018-04-15T06:18:38.201Z,101830.86
2018-04-15T06:21:06.829Z,101810.39
2018-04-15T06:23:35.474Z,101811.63
2018-04-15T06:26:05.431Z,101809.34
2018-04-15T06:28:34.088Z,101808.48
2018-04-15T06:31:02.764Z,101801.68
2018-04-15T06:33:31.226Z,101805.72
2018-04-15T06:35:59.636Z,101802.59
2018-04-15T06:38:28.220Z,101804.94
2018-04-15T06:40:56.888Z,101804.13
2018-04-15T06:43:25.304Z,101805.05
2018-04-15T06:45:53.724Z,101803.71
2018-04-15T06:48:22.514Z,101799.33
2018-04-15T06:50:50.936Z,101808.84
2018-04-15T06:53:19.605Z,101802.47
2018-04-15T06:55:48.551Z,101809.67
2018-04-15T06:58:16.955Z,101805.83
2018-04-15T07:00:45.312Z,101803.80
2018-04-15T07:03:13.672Z,101796.35
2018-04-15T07:05:42.704Z,101796.35
2018-04-15T07:08:11.065Z,101799.66
2018-04-15T07:10:39.911Z,101802.92
2018-04-15T07:13:08.516Z,101797.42
2018-04-15T07:15:36.911Z,101791.72
2018-04-15T07:18:05.461Z,101790.98
2018-04-15T07:20:34.395Z,101788.03
2018-04-15T07:23:03.525Z,101788.38
2018-04-15T07:25:33.021Z,101784.30
2018-04-15T07:28:02.336Z,101777.73
2018-04-15T07:30:31.296Z,101782.18
2018-04-15T07:32:59.741Z,101790.81
2018-04-15T07:35:29.261Z,101793.18
2018-04-15T07:37:57.678Z,101786.62
2018-04-15T07:40:26.615Z,101785.27
2018-04-15T07:42:55.571Z,101774.61
2018-04-15T07:45:24.407Z,101773.27
2018-04-15T07:47:53.501Z,101773.17
2018-04-15T07:50:22.195Z,101768.78
2018-04-15T07:52:50.553Z,101772.05
2018-04-15T07:55:19.341Z,101773.91
2018-04-15T07:57:48.748Z,101766.26
2018-04-15T08:00:17.364Z,101762.75
2018-04-15T08:02:48.661Z,101760.61
2018-04-15T08:05:17.154Z,101761.14
2018-04-15T08:07:47.892Z,101764.02
2018-04-15T08:10:16.326Z,101762.13
2018-04-15T08:12:45.817Z,101761.02
2018-04-15T08:15:14.379Z,101753.30
2018-04-15T08:17:42.968Z,101753.85
2018-04-15T08:20:11.640Z,101749.19
2018-04-15T08:22:40.157Z,101746.04
2018-04-15T08:25:08.531Z,101737.84
2018-04-15T08:27:37.253Z,101734.80
2018-04-15T08:30:05.723Z,101740.22
2018-04-15T08:32:35.017Z,101736.92
2018-04-15T08:35:04.158Z,101729.00
2018-04-15T08:37:32.636Z,101736.35
2018-04-15T08:40:01.654Z,101734.55
2018-04-15T08:42:30.509Z,101737.96
2018-04-15T08:45:01.036Z,101736.23
2018-04-15T08:47:30.460Z,101728.45
2018-04-15T08:49:59.107Z,101725.13
2018-04-15T08:52:27.765Z,101720.93
2018-04-15T08:54:56.248Z,101720.73
2018-04-15T08:57:25.039Z,101716.40
2018-04-15T08:59:53.471Z,101712.11
2018-04-15T09:02:22.037Z,101714.41
2018-04-15T09:04:51.948Z,101711.83
2018-04-15T09:07:20.335Z,101713.44
2018-04-15T09:09:48.994Z,101701.14
2018-04-15T09:12:17.667Z,101699.69
2018-04-15T09:14:47.147Z,101698.71
2018-04-15T09:17:15.814Z,101696.35
2018-04-15T09:19:44.540Z,101694.64
2018-04-15T09:22:14.974Z,101695.39
2018-04-15T09:24:45.239Z,101689.55
2018-04-15T09:27:14.166Z,101694.98
2018-04-15T09:29:44.004Z,101690.06
2018-04-15T09:32:12.386Z,101688.16
2018-04-15T09:34:42.110Z,101689.91
2018-04-15T09:37:10.708Z,101677.31
2018-04-15T09:39:41.315Z,101677.08
2018-04-15T09:42:11.361Z,101675.33
2018-04-15T09:44:40.087Z,101678.28
2018-04-15T09:47:10.251Z,101670.38
2018-04-15T09:49:38.732Z,101672.49
2018-04-15T09:52:08.441Z,101670.63
2018-04-15T09:54:36.865Z,101673.59
2018-04-15T09:57:06.965Z,101673.60
2018-04-15T09:59:36.247Z,101675.76
2018-04-15T10:02:05.034Z,101665.15
2018-04-15T10:04:33.439Z,101663.47
2018-04-15T10:07:01.876Z,101658.48
2018-04-15T10:09:30.691Z,101653.33
2018-04-15T10:11:59.446Z,101652.29
2018-04-15T10:14:28.123Z,101637.94
2018-04-15T10:16:56.977Z,101638.62
2018-04-15T10:19:26.219Z,101638.51
2018-04-15T10:21:55.788Z,101632.69
2018-04-15T10:24:24.303Z,101632.36
2018-04-15T10:26:52.962Z,101631.08
2018-04-15T10:29:21.596Z,101630.41
2018-04-15T10:31:50.021Z,101628.95
2018-04-15T10:34:18.964Z,101626.27
2018-04-15T10:36:47.428Z,101620.30
2018-04-15T10:39:16.886Z,101621.66
2018-04-15T10:41:45.790Z,101624.60
2018-04-15T10:44:14.607Z,101616.73
2018-04-15T10:46:43.366Z,101619.90
2018-04-15T10:49:12.055Z,101630.16
2018-04-15T10:51:40.424Z,101626.87
2018-04-15T10:54:09.090Z,101617.23
2018-04-15T10:56:37.730Z,101619.31
2018-04-15T10:59:07.376Z,101613.56
2018-04-15T11:01:36.387Z,101603.01
2018-04-15T11:04:05.509Z,101610.80
2018-04-15T11:06:33.878Z,101610.39
2018-04-15T11:09:02.261Z,101600.48
2018-04-15T11:11:31.289Z,101603.84
2018-04-15T11:13:59.656Z,101605.44
2018-04-15T11:16:28.084Z,101607.59
2018-04-15T11:18:56.491Z,101602.52
2018-04-15T11:21:25.162Z,101589.99
2018-04-15T11:23:53.920Z,101595.30
2018-04-15T11:26:22.502Z,101593.41
2018-04-15T11:28:52.490Z,101594.09
2018-04-15T11:31:21.284Z,101592.48
2018-04-15T11:33:49.870Z,101587.39
2018-04-15T11:36:19.195Z,101586.86
2018-04-15T11:38:47.731Z,101587.59
2018-04-15T11:41:16.948Z,101584.69
2018-04-15T11:43:45.343Z,101587.13
2018-04-15T11:46:13.706Z,101575.80
2018-04-15T11:48:42.066Z,101571.33
2018-04-15T11:51:10.440Z,101570.52
2018-04-15T11:53:39.420Z,101566.59
2018-04-15T11:56:08.312Z,101570.56
2018-04-15T11:58:37.688Z,101570.66
2018-04-15T12:01:06.149Z,101569.80
2018-04-15T12:03:34.755Z,101568.97
2018-04-15T12:06:03.332Z,101565.10
2018-04-15T12:08:31.741Z,101559.40
2018-04-15T12:11:00.248Z,101556.82
2018-04-15T12:13:28.610Z,101556.07
2018-04-15T12:15:57.142Z,101561.29
2018-04-15T12:18:25.548Z,101555.67
2018-04-15T12:20:53.942Z,101560.06
2018-04-15T12:23:23.085Z,101570.98
2018-04-15T12:25:51.552Z,101550.74
2018-04-15T12:28:20.155Z,101553.53
2018-04-15T12:30:49.236Z,101549.03
2018-04-15T12:33:18.575Z,101542.13
2018-04-15T12:35:47.759Z,101541.52
2018-04-15T12:38:17.097Z,101538.62
2018-04-15T12:40:45.455Z,101546.64
2018-04-15T12:43:13.838Z,101543.76
2018-04-15T12:45:42.231Z,101533.86
2018-04-15T12:48:10.662Z,101535.02
2018-04-15T12:50:39.121Z,101535.89
2018-04-15T12:53:07.926Z,101536.99
2018-04-15T12:55:36.320Z,101528.98
2018-04-15T12:58:04.962Z,101520.54
2018-04-15T13:00:33.671Z,101519.14
2018-04-15T13:03:02.364Z,101520.61
2018-04-15T13:05:30.729Z,101515.70
2018-04-15T13:07:59.092Z,101507.09
2018-04-15T13:10:27.588Z,101506.61
2018-04-15T13:12:55.973Z,101494.99
2018-04-15T13:15:24.404Z,101487.09
2018-04-15T13:17:53.529Z,101482.88
2018-04-15T13:20:21.890Z,101481.52
2018-04-15T13:22:50.270Z,101470.98
2018-04-15T13:25:18.656Z,101468.08
2018-04-15T13:27:46.999Z,101463.27
2018-04-15T13:30:15.354Z,101461.42
2018-04-15T13:32:43.703Z,101456.34
2018-04-15T13:35:12.110Z,101448.51
2018-04-15T13:37:40.480Z,101453.02
2018-04-15T13:40:09.077Z,101438.81
2018-04-15T13:42:37.767Z,101435.59
2018-04-15T13:45:06.133Z,101429.44
2018-04-15T13:47:34.523Z,101435.32
2018-04-15T13:50:02.937Z,101425.80
2018-04-15T13:52:31.300Z,101419.18
2018-04-15T13:54:59.734Z,101404.97
2018-04-15T13:57:28.512Z,101409.66
2018-04-15T13:59:57.236Z,101412.97
2018-04-15T14:02:25.594Z,101413.45
2018-04-15T14:04:54.022Z,101412.27
2018-04-15T14:07:22.980Z,101406.69
2018-04-15T14:09:51.332Z,101405.63
2018-04-15T14:12:20.024Z,101399.39
2018-04-15T14:14:48.394Z,101395.16
2018-04-15T14:17:17.011Z,101386.73
2018-04-15T14:19:45.373Z,101387.72
2018-04-15T14:22:13.748Z,101383.92
2018-04-15T14:24:42.151Z,101385.07
2018-04-15T14:27:10.520Z,101377.61
2018-04-15T14:29:38.884Z,101371.72
2018-04-15T14:32:07.595Z,101373.33
2018-04-15T14:34:35.947Z,101372.14
2018-04-15T14:37:04.659Z,101379.20
2018-04-15T14:39:33.020Z,101377.02
2018-04-15T14:42:01.834Z,101373.96
2018-04-15T14:44:30.183Z,101368.55
2018-04-15T14:46:58.675Z,101351.89
2018-04-15T14:49:27.046Z,101337.03
2018-04-15T14:51:55.413Z,101330.45
2018-04-15T14:54:23.766Z,101331.23
2018-04-15T14:56:52.596Z,101335.94
2018-04-15T14:59:21.043Z,101338.38
2018-04-15T15:01:49.394Z,101337.07
2018-04-15T15:04:17.748Z,101330.88
2018-04-15T15:06:46.170Z,101330.73
2018-04-15T15:09:14.787Z,101334.14
2018-04-15T15:11:43.221Z,101324.09
2018-04-15T15:14:11.566Z,101327.56
2018-04-15T15:16:39.923Z,101322.10
2018-04-15T15:19:08.285Z,101306.70
2018-04-15T15:21:36.796Z,101313.70
2018-04-15T15:24:05.159Z,101307.77
2018-04-15T15:26:33.528Z,101299.44
2018-04-15T15:29:01.894Z,101291.36
2018-04-15T15:31:30.264Z,101293.12
2018-04-15T15:33:58.891Z,101291.50
2018-04-15T15:36:27.334Z,101287.72
2018-04-15T15:38:55.694Z,101291.41
2018-04-15T15:41:24.270Z,101287.09
2018-04-15T15:43:52.629Z,101282.47
2018-04-15T15:46:20.981Z,101282.91
2018-04-15T15:48:49.347Z,101289.06
2018-04-15T15:51:17.693Z,101290.58
2018-04-15T15:53:46.102Z,101290.58
2018-04-15T15:56:14.789Z,101289.88
2018-04-15T15:58:43.850Z,101289.74
2018-04-15T16:01:12.207Z,101283.55
2018-04-15T16:03:40.586Z,101274.73
2018-04-15T16:06:09.437Z,101270.81
2018-04-15T16:08:38.150Z,101273.20
2018-04-15T16:11:06.569Z,101273.11
2018-04-15T16:13:35.235Z,101274.66
2018-04-15T16:16:04.621Z,101275.28
2018-04-15T16:18:33.000Z,101279.73
2018-04-15T16:21:01.370Z,101287.27
2018-04-15T16:23:30.083Z,101277.63
2018-04-15T16:25:58.455Z,101270.47
2018-04-15T16:28:27.140Z,101273.25
2018-04-15T16:30:55.545Z,101276.64
2018-04-15T16:33:23.912Z,101273.21
2018-04-15T16:35:52.280Z,101279.34
2018-04-15T16:38:20.633Z,101277.52
2018-04-15T16:40:49.278Z,101287.91
2018-04-15T16:43:17.883Z,101279.75
2018-04-15T16:45:46.528Z,101279.30
2018-04-15T16:48:15.010Z,101277.64
2018-04-15T16:50:43.474Z,101270.23
2018-04-15T16:53:12.397Z,101262.68
2018-04-15T16:55:40.766Z,101269.68
2018-04-15T16:58:10.903Z,101263.61
2018-04-15T17:00:39.368Z,101265.17
2018-04-15T17:03:07.742Z,101263.50
2018-04-15T17:05:36.438Z,101268.61
2018-04-15T17:08:04.811Z,101269.92
2018-04-15T17:10:33.575Z,101263.91
2018-04-15T17:13:01.952Z,101272.50
2018-04-15T17:15:31.237Z,101269.03
2018-04-15T17:17:59.903Z,101270.00
2018-04-15T17:20:28.557Z,101269.68
2018-04-15T17:22:56.934Z,101271.45
2018-04-15T17:25:25.618Z,101281.35
2018-04-15T17:27:53.985Z,101281.91
2018-04-15T17:30:22.687Z,101273.66
2018-04-15T17:32:52.477Z,101278.00
2018-04-15T17:35:20.840Z,101282.03
2018-04-15T17:37:49.243Z,101283.84
2018-04-15T17:40:17.647Z,101278.92
2018-04-15T17:42:46.346Z,101282.77
2018-04-15T17:45:14.716Z,101282.84
2018-04-15T17:47:43.508Z,101290.39
2018-04-15T17:50:11.869Z,101288.03
2018-04-15T17:52:40.251Z,101282.36
2018-04-15T17:55:09.013Z,101283.77
2018-04-15T17:57:37.756Z,101288.03
2018-04-15T18:00:06.252Z,101282.90
2018-04-15T18:02:35.055Z,101282.84
2018-04-15T18:05:03.716Z,101279.22
2018-04-15T18:07:32.104Z,101293.38
2018-04-15T18:10:00.478Z,101284.31
2018-04-15T18:12:28.870Z,101289.57
2018-04-15T18:14:57.565Z,101285.50
2018-04-15T18:17:26.653Z,101289.59
2018-04-15T18:19:55.142Z,101278.60
2018-04-15T18:22:23.824Z,101280.22
2018-04-15T18:24:52.549Z,101273.03
2018-04-15T18:27:21.229Z,101279.00
2018-04-15T18:29:49.909Z,101277.13
2018-04-15T18:32:18.601Z,101278.16
2018-04-15T18:34:47.132Z,101270.67
2018-04-15T18:37:15.677Z,101272.89
2018-04-15T18:39:44.445Z,101265.89
2018-04-15T18:42:14.112Z,101262.43
2018-04-15T18:44:42.849Z,101259.08
2018-04-15T18:47:11.218Z,101253.73
2018-04-15T18:49:39.713Z,101253.26
2018-04-15T18:52:08.091Z,101252.73
2018-04-15T18:54:37.514Z,101246.59
2018-04-15T18:57:06.286Z,101241.34
2018-04-15T18:59:34.853Z,101242.09
2018-04-15T19:02:04.438Z,101241.41
2018-04-15T19:04:33.013Z,101241.28
2018-04-15T19:07:01.508Z,101241.80
2018-04-15T19:09:30.551Z,101244.94
2018-04-15T19:11:58.925Z,101243.55
2018-04-15T19:14:29.026Z,101239.80
2018-04-15T19:16:58.223Z,101243.25
2018-04-15T19:19:26.597Z,101247.50
2018-04-15T19:21:54.986Z,101249.82
2018-04-15T19:24:23.347Z,101242.37
2018-04-15T19:26:51.700Z,101241.50
2018-04-15T19:29:20.793Z,101243.08
2018-04-15T19:31:49.164Z,101240.25
2018-04-15T19:34:17.816Z,101231.09
2018-04-15T19:36:46.488Z,101228.25
2018-04-15T19:39:15.365Z,101227.12
2018-04-15T19:41:44.847Z,101231.47
2018-04-15T19:44:15.286Z,101230.22
2018-04-15T19:46:43.936Z,101225.87
2018-04-15T19:49:13.584Z,101227.97
2018-04-15T19:51:42.173Z,101231.25
2018-04-15T19:54:10.905Z,101231.13
2018-04-15T19:56:39.824Z,101217.44
2018-04-15T19:59:08.201Z,101217.97
2018-04-15T20:01:36.796Z,101218.42
2018-04-15T20:04:05.302Z,101213.25
2018-04-15T20:06:33.871Z,101216.43
2018-04-15T20:09:02.477Z,101219.66
2018-04-15T20:11:31.276Z,101217.00
2018-04-15T20:14:00.059Z,101220.63
2018-04-15T20:16:28.761Z,101216.27
2018-04-15T20:18:57.175Z,101215.76
2018-04-15T20:21:25.569Z,101217.52
2018-04-15T20:23:55.030Z,101218.91
2018-04-15T20:26:23.799Z,101215.70
2018-04-15T20:28:53.534Z,101209.82
2018-04-15T20:31:21.904Z,101214.20
2018-04-15T20:33:50.364Z,101216.72
2018-04-15T20:36:19.129Z,101214.05
2018-04-15T20:38:47.615Z,101212.56
2018-04-15T20:41:16.264Z,101209.39
2018-04-15T20:43:44.665Z,101210.45
2018-04-15T20:46:13.183Z,101203.73
2018-04-15T20:48:41.536Z,101204.13
2018-04-15T20:51:09.933Z,101200.28
2018-04-15T20:53:39.124Z,101200.45
2018-04-15T20:56:08.544Z,101192.89
2018-04-15T20:58:37.082Z,101190.44
2018-04-15T21:01:06.448Z,101193.47
2018-04-15T21:03:36.586Z,101199.67
2018-04-15T21:06:04.991Z,101190.18
2018-04-15T21:08:33.711Z,101187.47
2018-04-15T21:11:02.492Z,101185.89
2018-04-15T21:13:31.006Z,101193.93
2018-04-15T21:15:59.555Z,101174.67
2018-04-15T21:18:28.156Z,101176.59
2018-04-15T21:20:56.790Z,101162.90
2018-04-15T21:23:25.285Z,101156.30
2018-04-15T21:25:56.830Z,101167.30
2018-04-15T21:28:28.411Z,101151.47
2018-04-15T21:30:59.660Z,101148.19
2018-04-15T21:33:29.934Z,101148.56
2018-04-15T21:35:59.100Z,101146.95
2018-04-15T21:38:28.633Z,101145.94
2018-04-15T21:40:57.157Z,101143.35
2018-04-15T21:43:25.694Z,101138.00
2018-04-15T21:45:56.024Z,101131.55
2018-04-15T21:48:25.224Z,101124.53
2018-04-15T21:50:53.863Z,101124.91
2018-04-15T21:53:28.812Z,101124.63
2018-04-15T21:56:00.940Z,101119.02
2018-04-15T21:58:29.875Z,101115.41
2018-04-15T22:00:58.381Z,101114.93
2018-04-15T22:03:27.204Z,101116.67
2018-04-15T22:05:55.638Z,101112.28
2018-04-15T22:08:24.719Z,101117.27
2018-04-15T22:10:53.839Z,101118.05
2018-04-15T22:13:23.927Z,101107.83
2018-04-15T22:15:53.144Z,101110.06
2018-04-15T22:18:21.897Z,101102.86
2018-04-15T22:20:50.277Z,101109.84
2018-04-15T22:23:18.653Z,101110.34
2018-04-15T22:25:47.070Z,101111.28
2018-04-15T22:28:15.471Z,101106.69
2018-04-15T22:30:43.923Z,101101.92
2018-04-15T22:33:12.403Z,101093.79
2018-04-15T22:35:40.850Z,101099.21
2018-04-15T22:38:09.273Z,101092.10
2018-04-15T22:40:37.756Z,101087.58
2018-04-15T22:43:06.145Z,101084.95
2018-04-15T22:45:34.503Z,101084.98
2018-04-15T22:48:05.036Z,101089.05
2018-04-15T22:50:37.767Z,101079.59
2018-04-15T22:53:06.312Z,101078.92
2018-04-15T22:55:34.668Z,101077.48
2018-04-15T22:58:05.500Z,101076.89
2018-04-15T23:00:33.944Z,101080.83
2018-04-15T23:03:02.314Z,101080.08
2018-04-15T23:05:30.719Z,101077.33
2018-04-15T23:07:59.103Z,101078.58
2018-04-15T23:10:27.969Z,101077.22
2018-04-15T23:12:56.734Z,101075.00
2018-04-15T23:15:25.423Z,101073.56
2018-04-15T23:17:54.179Z,101078.09
2018-04-15T23:20:22.787Z,101072.52
2018-04-15T23:22:51.372Z,101069.12
2018-04-15T23:25:19.737Z,101060.05
2018-04-15T23:27:48.207Z,101055.77
2018-04-15T23:30:16.564Z,101060.13
2018-04-15T23:32:45.061Z,101048.31
2018-04-15T23:35:13.415Z,101043.80
2018-04-15T23:37:41.774Z,101049.06
2018-04-15T23:40:10.144Z,101046.16
2018-04-15T23:42:38.892Z,101037.77
2018-04-15T23:45:07.578Z,101034.87
2018-04-15T23:47:36.042Z,101030.73
2018-04-15T23:50:04.493Z,101032.56
2018-04-15T23:52:33.113Z,101036.11
2018-04-15T23:55:01.555Z,101025.38
2018-04-15T23:57:30.583Z,101032.67
2018-04-15T23:59:59.066Z,101030.98
